Time;durP1;ratioP1;P1;durP2;ratioP2;P2;SDS_P1;SDS_P2;PMS_P1;PMS_P2;Temp;Humidity;BMP_temperature;BMP_pressure;BME280_temperature;BME280_humidity;BME280_pressure;Samples;Min_cycle;Max_cycle;Signal;HPM_P1;HPM_P2
2022/07/12 00:01:04;;;;;;;1999.90;999.90;;;21.80;92.60;;;;;;5053083;28;20419;-74
2022/07/12 00:03:30;;;;;;;1999.90;999.90;;;21.70;92.80;;;;;;5053183;28;20099;-74
2022/07/12 00:05:56;;;;;;;1999.90;999.90;;;21.70;92.90;;;;;;5052870;28;20040;-74
2022/07/12 00:08:23;;;;;;;1999.90;999.90;;;21.60;93.10;;;;;;5056210;28;20120;-74
2022/07/12 00:10:49;;;;;;;1999.90;999.90;;;21.50;93.20;;;;;;5064274;28;20086;-74
2022/07/12 00:13:15;;;;;;;1999.90;999.90;;;21.50;93.20;;;;;;5052872;28;20029;-74
2022/07/12 00:15:42;;;;;;;1999.90;999.90;;;21.40;93.40;;;;;;5052847;28;20388;-74
2022/07/12 00:18:08;;;;;;;1999.90;999.90;;;21.40;93.50;;;;;;5034088;28;20021;-74
2022/07/12 00:20:33;;;;;;;1999.90;999.90;;;21.30;93.50;;;;;;5052598;28;20423;-74
2022/07/12 00:22:59;;;;;;;1999.90;999.90;;;21.30;93.70;;;;;;5052721;28;20021;-75
2022/07/12 00:25:25;;;;;;;1999.90;999.90;;;21.30;93.90;;;;;;5052728;28;20028;-74
2022/07/12 00:27:52;;;;;;;1999.90;999.90;;;21.20;93.90;;;;;;5034814;28;20518;-74
2022/07/12 00:30:17;;;;;;;1999.90;999.90;;;21.20;94.00;;;;;;5043914;28;20062;-74
2022/07/12 00:32:44;;;;;;;1999.90;999.90;;;21.20;94.20;;;;;;5034647;28;20048;-74
2022/07/12 00:35:10;;;;;;;1999.90;999.90;;;21.10;94.10;;;;;;5052707;28;20033;-74
2022/07/12 00:37:35;;;;;;;1999.90;999.90;;;21.10;94.10;;;;;;5052627;28;20373;-74
2022/07/12 00:40:03;;;;;;;1999.90;999.90;;;21.20;94.20;;;;;;5041048;28;20032;-74
2022/07/12 00:42:29;;;;;;;1999.90;999.90;;;21.30;94.10;;;;;;5045969;28;20025;-74
2022/07/12 00:44:55;;;;;;;1999.90;999.90;;;21.30;94.10;;;;;;5052627;28;20028;-74
2022/07/12 00:47:37;;;;;;;1999.90;999.90;;;21.30;94.10;;;;;;5052141;28;20025;-74
2022/07/12 00:50:11;;;;;;;1999.90;999.90;;;21.30;94.20;;;;;;5034624;28;20033;-74
2022/07/12 00:52:38;;;;;;;1999.90;999.90;;;21.20;94.20;;;;;;5052708;28;20036;-74
2022/07/12 00:55:05;;;;;;;1999.90;999.90;;;21.20;94.30;;;;;;5052330;28;20020;-74
2022/07/12 00:57:32;;;;;;;1999.90;999.90;;;21.10;94.40;;;;;;5052576;28;20017;-74
2022/07/12 00:59:58;;;;;;;1999.90;999.90;;;21.00;94.50;;;;;;5052632;28;20025;-74
2022/07/12 01:02:24;;;;;;;1999.90;999.90;;;20.90;94.60;;;;;;5052443;28;20053;-74
2022/07/12 01:04:51;;;;;;;1999.90;999.90;;;20.90;94.70;;;;;;5034598;28;20021;-74
2022/07/12 01:07:16;;;;;;;1999.90;999.90;;;20.90;94.80;;;;;;5052513;28;20395;-74
2022/07/12 01:09:43;;;;;;;1999.90;999.90;;;20.80;94.80;;;;;;5051705;28;20022;-74
2022/07/12 01:12:10;;;;;;;1999.90;999.90;;;20.80;94.90;;;;;;5042572;28;20032;-74
2022/07/12 01:14:36;;;;;;;1999.90;999.90;;;20.70;94.90;;;;;;5055739;28;20024;-74
2022/07/12 01:17:03;;;;;;;1999.90;999.90;;;20.80;95.00;;;;;;5056194;28;20408;-74
2022/07/12 01:19:29;;;;;;;1999.90;999.90;;;20.80;95.10;;;;;;5055862;28;20021;-74
2022/07/12 01:21:59;;;;;;;1999.90;999.90;;;20.80;95.10;;;;;;5056100;28;20054;-74
2022/07/12 01:24:24;;;;;;;1999.90;999.90;;;20.70;95.10;;;;;;5055971;28;20384;-74
2022/07/12 01:26:51;;;;;;;1999.90;999.90;;;20.70;95.20;;;;;;5056234;28;20025;-74
2022/07/12 01:29:16;;;;;;;1999.90;999.90;;;20.60;95.30;;;;;;5037752;28;20029;-75
2022/07/12 01:31:43;;;;;;;1999.90;999.90;;;20.60;95.40;;;;;;5056006;28;20025;-74
2022/07/12 01:34:09;;;;;;;1999.90;999.90;;;20.60;95.50;;;;;;5052810;28;20040;-74
2022/07/12 01:36:36;;;;;;;1999.90;999.90;;;20.50;95.50;;;;;;5055954;28;20055;-74
2022/07/12 01:39:03;;;;;;;1999.90;999.90;;;20.50;95.60;;;;;;5037471;28;20033;-75
2022/07/12 01:41:31;;;;;;;1999.90;999.90;;;20.40;95.60;;;;;;5055897;28;20070;-74
2022/07/12 01:43:56;;;;;;;1999.90;999.90;;;20.40;95.80;;;;;;5055761;28;20052;-74
2022/07/12 01:46:22;;;;;;;1999.90;999.90;;;20.40;95.80;;;;;;5055094;28;20068;-74
2022/07/12 01:48:48;;;;;;;1999.90;999.90;;;20.40;95.90;;;;;;5055655;28;20028;-74
2022/07/12 01:51:14;;;;;;;1999.90;999.90;;;20.30;96.00;;;;;;5055803;28;20025;-73
2022/07/12 01:53:39;;;;;;;1999.90;999.90;;;20.30;96.10;;;;;;5055483;28;20104;-74
2022/07/12 01:56:05;;;;;;;1999.90;999.90;;;20.20;96.20;;;;;;5055628;28;20028;-74
2022/07/12 01:58:31;;;;;;;1999.90;999.90;;;20.10;96.30;;;;;;5055468;28;20025;-74
2022/07/12 02:00:57;;;;;;;1999.90;999.90;;;20.00;96.50;;;;;;5055597;28;20021;-74
2022/07/12 02:03:23;;;;;;;1999.90;999.90;;;19.90;96.60;;;;;;5037584;28;20025;-73
2022/07/12 02:05:49;;;;;;;1999.90;999.90;;;19.90;96.80;;;;;;5055555;28;20020;-74
2022/07/12 02:08:15;;;;;;;1999.90;999.90;;;19.80;96.90;;;;;;5054526;28;20025;-74
2022/07/12 02:10:42;;;;;;;1999.90;999.90;;;19.80;97.00;;;;;;5067547;28;20128;-75
2022/07/12 02:13:07;;;;;;;1999.90;999.90;;;19.80;97.10;;;;;;5055196;28;20028;-74
2022/07/12 02:15:33;;;;;;;1999.90;999.90;;;19.80;97.10;;;;;;5055288;28;20036;-74
2022/07/12 02:17:59;;;;;;;1999.90;999.90;;;19.70;97.20;;;;;;5054842;28;20025;-74
2022/07/12 02:20:25;;;;;;;1999.90;999.90;;;19.80;97.40;;;;;;5054964;28;20029;-74
2022/07/12 02:22:50;;;;;;;1999.90;999.90;;;19.70;97.40;;;;;;5054234;28;20104;-73
2022/07/12 02:25:16;;;;;;;1999.90;999.90;;;19.70;97.50;;;;;;5054909;28;20025;-74
2022/07/12 02:27:42;;;;;;;1999.90;999.90;;;19.60;97.50;;;;;;5054961;28;20361;-74
2022/07/12 02:30:09;;;;;;;1999.90;999.90;;;19.60;97.60;;;;;;5037136;28;20132;-74
2022/07/12 02:32:36;;;;;;;1999.90;999.90;;;19.60;97.70;;;;;;5054195;28;20484;-74
2022/07/12 02:35:02;;;;;;;1999.90;999.90;;;19.60;97.70;;;;;;5051626;28;20025;-74
2022/07/12 02:37:27;;;;;;;1999.90;999.90;;;19.60;97.70;;;;;;5036895;28;20438;-74
2022/07/12 02:40:52;;;;;;;1999.90;999.90;;;19.60;97.60;;;;;;5054399;28;20509;-74
2022/07/12 02:42:39;;;;;;;1999.90;999.90;;;19.60;97.70;;;;;;5046235;28;20032;-74
2022/07/12 02:45:05;;;;;;;1999.90;999.90;;;19.60;97.70;;;;;;5054942;28;20018;-74
2022/07/12 02:47:31;;;;;;;1999.90;999.90;;;19.50;97.70;;;;;;5053867;28;20017;-74
2022/07/12 02:49:58;;;;;;;1999.90;999.90;;;19.50;97.80;;;;;;5054810;28;20399;-73
2022/07/12 02:52:24;;;;;;;1999.90;999.90;;;19.50;98.00;;;;;;5054456;28;20033;-74
2022/07/12 02:54:50;;;;;;;1999.90;999.90;;;19.40;98.30;;;;;;5054254;28;20033;-74
2022/07/12 02:57:16;;;;;;;1999.90;999.90;;;19.30;98.20;;;;;;5054449;28;20032;-74
2022/07/12 02:59:41;;;;;;;1999.90;999.90;;;19.30;98.30;;;;;;5054660;28;20033;-74
2022/07/12 03:02:07;;;;;;;1999.90;999.90;;;19.30;98.50;;;;;;5054098;28;20021;-74
2022/07/12 03:04:32;;;;;;;1999.90;999.90;;;19.20;98.50;;;;;;5054481;28;20025;-74
2022/07/12 03:06:58;;;;;;;1999.90;999.90;;;19.20;98.70;;;;;;5036126;28;20025;-74
2022/07/12 03:09:24;;;;;;;1999.90;999.90;;;19.10;98.90;;;;;;5053931;28;20500;-74
2022/07/12 03:11:49;;;;;;;1999.90;999.90;;;19.10;99.00;;;;;;5054000;28;20100;-74
2022/07/12 03:14:15;;;;;;;1999.90;999.90;;;19.10;99.10;;;;;;5054288;28;20108;-73
2022/07/12 03:16:41;;;;;;;1999.90;999.90;;;19.00;99.30;;;;;;5053877;28;20484;-73
2022/07/12 03:19:06;;;;;;;1999.90;999.90;;;19.00;99.20;;;;;;5054062;28;20040;-73
2022/07/12 03:21:32;;;;;;;1999.90;999.90;;;19.00;99.20;;;;;;5053868;28;20029;-74
2022/07/12 03:23:58;;;;;;;1999.90;999.90;;;18.90;99.30;;;;;;5053999;28;20029;-74
2022/07/12 03:26:23;;;;;;;1999.90;999.90;;;18.90;99.40;;;;;;5053856;28;20017;-74
2022/07/12 03:28:49;;;;;;;1999.90;999.90;;;18.90;99.60;;;;;;5053872;28;20029;-74
2022/07/12 03:31:15;;;;;;;1999.90;999.90;;;18.90;99.60;;;;;;5053421;28;20068;-73
2022/07/12 03:33:40;;;;;;;1999.90;999.90;;;18.90;99.60;;;;;;5053604;28;20035;-74
2022/07/12 03:36:08;;;;;;;1999.90;999.90;;;18.90;99.70;;;;;;5053659;28;20086;-74
2022/07/12 03:38:35;;;;;;;1999.90;999.90;;;18.80;99.80;;;;;;5045218;28;20022;-74
2022/07/12 03:41:01;;;;;;;1999.90;999.90;;;18.80;99.90;;;;;;5050055;28;20051;-73
2022/07/12 03:43:26;;;;;;;1999.90;999.90;;;18.80;99.90;;;;;;5053511;28;20029;-73
2022/07/12 03:45:53;;;;;;;1999.90;999.90;;;18.80;99.90;;;;;;5053600;28;20114;-74
2022/07/12 03:48:18;;;;;;;1999.90;999.90;;;18.70;99.90;;;;;;5052913;28;20479;-73
2022/07/12 03:50:45;;;;;;;1999.90;999.90;;;18.70;99.90;;;;;;5053383;28;20047;-74
2022/07/12 03:53:11;;;;;;;1999.90;999.90;;;18.60;99.90;;;;;;5053246;28;20025;-74
2022/07/12 03:55:37;;;;;;;1999.90;999.90;;;18.60;99.90;;;;;;5053311;28;20447;-73
2022/07/12 03:58:03;;;;;;;1999.90;999.90;;;18.60;99.90;;;;;;5053348;28;20108;-73
2022/07/12 04:00:29;;;;;;;1999.90;999.90;;;18.60;99.90;;;;;;5052881;28;20021;-73
2022/07/12 04:02:54;;;;;;;1999.90;999.90;;;18.60;99.90;;;;;;5053280;28;20071;-74
2022/07/12 04:05:20;;;;;;;1999.90;999.90;;;18.60;99.90;;;;;;5053460;28;20116;-74
2022/07/12 04:07:46;;;;;;;1999.90;999.90;;;18.50;99.90;;;;;;5053212;28;20025;-74
2022/07/12 04:10:11;;;;;;;1999.90;999.90;;;18.60;99.90;;;;;;5051246;28;20037;-74
2022/07/12 04:12:37;;;;;;;1999.90;999.90;;;18.60;99.90;;;;;;5043464;28;20499;-73
2022/07/12 04:15:04;;;;;;;1999.90;999.90;;;18.60;99.90;;;;;;5052527;28;20029;-74
2022/07/12 04:17:30;;;;;;;1999.90;999.90;;;18.60;99.90;;;;;;5053036;28;20029;-74
2022/07/12 04:19:56;;;;;;;1999.90;999.90;;;18.50;99.90;;;;;;5052742;28;20036;-74
2022/07/12 04:22:22;;;;;;;1999.90;999.90;;;18.50;99.90;;;;;;5052820;28;20032;-73
2022/07/12 04:24:47;;;;;;;1999.90;999.90;;;18.50;99.90;;;;;;5034696;28;20043;-74
2022/07/12 04:27:13;;;;;;;1999.90;999.90;;;18.50;99.90;;;;;;5052873;28;20036;-73
2022/07/12 04:29:39;;;;;;;1999.90;999.90;;;18.50;99.90;;;;;;5052476;28;20578;-74
2022/07/12 04:32:04;;;;;;;1999.90;999.90;;;18.50;99.90;;;;;;5052359;28;20040;-74
2022/07/12 04:34:30;;;;;;;1999.90;999.90;;;18.50;99.90;;;;;;5049752;28;20052;-74
2022/07/12 04:36:56;;;;;;;1999.90;999.90;;;18.50;99.90;;;;;;5052982;28;20029;-74
2022/07/12 04:39:22;;;;;;;1999.90;999.90;;;18.50;99.90;;;;;;5051946;28;20032;-74
2022/07/12 04:41:48;;;;;;;1999.90;999.90;;;18.50;99.90;;;;;;5043727;28;20068;-74
2022/07/12 04:44:13;;;;;;;1999.90;999.90;;;18.60;99.90;;;;;;5049485;28;20488;-74
2022/07/12 04:46:39;;;;;;;1999.90;999.90;;;18.60;99.90;;;;;;5058549;28;20021;-73
2022/07/12 04:49:06;;;;;;;1999.90;999.90;;;18.70;99.90;;;;;;5058555;28;20037;-73
2022/07/12 04:51:32;;;;;;;1999.90;999.90;;;18.80;99.90;;;;;;5059329;28;20506;-73
2022/07/12 04:53:58;;;;;;;1999.90;999.90;;;18.80;99.90;;;;;;5058829;28;20032;-74
2022/07/12 04:56:23;;;;;;;1999.90;999.90;;;18.80;99.90;;;;;;5059069;28;20024;-74
2022/07/12 04:58:49;;;;;;;1999.90;999.90;;;18.90;99.90;;;;;;5059265;28;20063;-74
2022/07/12 05:01:16;;;;;;;1999.90;999.90;;;18.90;99.90;;;;;;5050412;28;20020;-73
2022/07/12 05:03:41;;;;;;;1999.90;999.90;;;19.00;99.90;;;;;;5059372;28;20462;-73
2022/07/12 05:06:07;;;;;;;1999.90;999.90;;;19.00;99.90;;;;;;5057669;28;20092;-73
2022/07/12 05:08:34;;;;;;;1999.90;999.90;;;19.10;99.90;;;;;;5063650;28;20028;-74
2022/07/12 05:10:59;;;;;;;1999.90;999.90;;;19.10;99.90;;;;;;5068411;28;20024;-74
2022/07/12 05:13:25;;;;;;;1999.90;999.90;;;19.10;99.90;;;;;;5058688;28;20472;-73
2022/07/12 05:15:51;;;;;;;1999.90;999.90;;;19.10;99.90;;;;;;5058552;28;20488;-74
2022/07/12 05:18:16;;;;;;;1999.90;999.90;;;19.10;99.90;;;;;;5058047;28;20812;-73
2022/07/12 05:20:42;;;;;;;1999.90;999.90;;;19.10;99.90;;;;;;5058659;28;20029;-76
2022/07/12 05:23:08;;;;;;;1999.90;999.90;;;19.10;99.90;;;;;;5058150;28;20078;-74
2022/07/12 05:25:34;;;;;;;1999.90;999.90;;;19.10;99.90;;;;;;5058574;28;20029;-74
2022/07/12 05:27:59;;;;;;;1999.90;999.90;;;19.10;99.90;;;;;;5058624;28;20053;-75
2022/07/12 05:30:25;;;;;;;1999.90;999.90;;;19.10;99.90;;;;;;5048933;28;20389;-74
2022/07/12 05:32:51;;;;;;;1999.90;999.90;;;19.20;99.90;;;;;;5055065;28;20029;-75
2022/07/12 05:35:17;;;;;;;1999.90;999.90;;;19.20;99.90;;;;;;5058539;28;20514;-75
2022/07/12 05:37:43;;;;;;;1999.90;999.90;;;19.20;99.90;;;;;;5058702;28;20067;-75
2022/07/12 05:40:09;;;;;;;1999.90;999.90;;;19.30;99.90;;;;;;5058358;28;20032;-75
2022/07/12 05:42:35;;;;;;;1999.90;999.90;;;19.30;99.90;;;;;;5045919;28;20044;-74
2022/07/12 05:45:01;;;;;;;1999.90;999.90;;;19.40;99.90;;;;;;5058733;28;20021;-75
2022/07/12 05:47:26;;;;;;;1999.90;999.90;;;19.50;99.90;;;;;;5058898;28;20040;-74
2022/07/12 05:49:52;;;;;;;1999.90;999.90;;;19.60;99.90;;;;;;5057896;28;20492;-75
2022/07/12 05:55:02;;;;;;;1999.90;999.90;;;19.80;99.90;;;;;;5058133;28;20039;-74
2022/07/12 05:57:28;;;;;;;1999.90;999.90;;;19.90;99.90;;;;;;5055366;28;20029;-74
2022/07/12 05:59:53;;;;;;;1999.90;999.90;;;19.80;99.90;;;;;;5037796;28;20029;-75
2022/07/12 06:02:19;;;;;;;1999.90;999.90;;;19.90;99.90;;;;;;5053048;28;20028;-74
2022/07/12 06:04:44;;;;;;;1999.90;999.90;;;20.10;99.90;;;;;;5047656;28;20028;-74
2022/07/12 06:07:10;;;;;;;1999.90;999.90;;;20.10;99.90;;;;;;5054133;28;20624;-74
2022/07/12 06:09:36;;;;;;;1999.90;999.90;;;20.20;99.90;;;;;;5054357;28;20031;-75
2022/07/12 06:12:02;;;;;;;1999.90;999.90;;;20.40;99.90;;;;;;5044850;28;20155;-74
2022/07/12 06:14:28;;;;;;;1999.90;999.90;;;20.50;99.90;;;;;;5052707;28;20017;-74
2022/07/12 06:16:53;;;;;;;1999.90;999.90;;;20.60;99.90;;;;;;5053671;28;20514;-74
2022/07/12 06:19:19;;;;;;;1999.90;999.90;;;20.70;99.90;;;;;;5039040;28;20025;-75
2022/07/12 06:21:45;;;;;;;1999.90;999.90;;;20.80;99.80;;;;;;5034969;28;20029;-74
2022/07/12 06:24:10;;;;;;;1999.90;999.90;;;21.00;99.60;;;;;;5043497;28;20105;-74
2022/07/12 06:26:36;;;;;;;1999.90;999.90;;;21.20;99.20;;;;;;5053505;28;20025;-75
2022/07/12 06:29:02;;;;;;;1999.90;999.90;;;21.40;98.80;;;;;;5047937;28;20071;-74
2022/07/12 06:31:28;;;;;;;1999.90;999.90;;;21.70;98.30;;;;;;5040207;28;20057;-75
2022/07/12 06:33:54;;;;;;;1999.90;999.90;;;21.90;98.00;;;;;;5052660;28;20028;-74
2022/07/12 06:36:19;;;;;;;1999.90;999.90;;;22.10;97.30;;;;;;5050352;28;20033;-74
2022/07/12 06:38:45;;;;;;;1999.90;999.90;;;22.30;97.10;;;;;;5045098;28;20082;-75
2022/07/12 06:41:11;;;;;;;1999.90;999.90;;;22.50;96.70;;;;;;5046673;28;20028;-74
2022/07/12 06:43:36;;;;;;;1999.90;999.90;;;22.60;96.50;;;;;;5047586;28;20025;-75
2022/07/12 06:46:02;;;;;;;1999.90;999.90;;;22.80;96.20;;;;;;5046853;28;20045;-74
2022/07/12 06:48:27;;;;;;;1999.90;999.90;;;22.90;96.00;;;;;;5052189;28;20099;-75
2022/07/12 06:50:53;;;;;;;1999.90;999.90;;;23.00;95.80;;;;;;5049939;28;20025;-74
2022/07/12 06:53:20;;;;;;;1999.90;999.90;;;23.00;95.60;;;;;;5050712;28;20036;-74
2022/07/12 06:55:46;;;;;;;1999.90;999.90;;;23.20;95.40;;;;;;5034756;28;20033;-74
2022/07/12 06:58:12;;;;;;;1999.90;999.90;;;23.30;95.30;;;;;;5051235;28;20029;-74
2022/07/12 07:00:37;;;;;;;1999.90;999.90;;;23.30;95.20;;;;;;5056567;28;20124;-75
2022/07/12 07:03:06;;;;;;;1999.90;999.90;;;23.50;95.20;;;;;;5062518;28;20013;-74
2022/07/12 07:05:31;;;;;;;1999.90;999.90;;;23.50;94.80;;;;;;5052361;28;20025;-75
2022/07/12 07:07:57;;;;;;;1999.90;999.90;;;23.70;94.90;;;;;;5044819;28;20162;-74
2022/07/12 07:10:23;;;;;;;1999.90;999.90;;;23.90;94.60;;;;;;5061367;28;20037;-74
2022/07/12 07:12:48;;;;;;;1999.90;999.90;;;24.10;94.30;;;;;;5050871;28;20053;-75
2022/07/12 07:15:15;;;;;;;1999.90;999.90;;;24.20;94.10;;;;;;5047783;28;20449;-74
2022/07/12 07:17:42;;;;;;;1999.90;999.90;;;24.20;93.90;;;;;;5045842;28;20033;-73
2022/07/12 07:20:09;;;;;;;1999.90;999.90;;;24.40;93.90;;;;;;5048980;28;20119;-74
2022/07/12 07:22:35;;;;;;;1999.90;999.90;;;24.60;93.40;;;;;;5045827;28;20032;-75
2022/07/12 07:25:00;;;;;;;1999.90;999.90;;;24.80;93.50;;;;;;5045497;28;20033;-75
2022/07/12 07:27:26;;;;;;;1999.90;999.90;;;25.00;93.00;;;;;;5047850;28;20024;-75
2022/07/12 07:32:36;;;;;;;1999.90;999.90;;;25.40;92.50;;;;;;5050439;28;20079;-75
2022/07/12 07:35:04;;;;;;;1999.90;999.90;;;25.70;92.50;;;;;;5050317;28;20033;-75
2022/07/12 07:37:29;;;;;;;1999.90;999.90;;;25.90;92.10;;;;;;5049956;28;20075;-75
2022/07/12 07:39:55;;;;;;;1999.90;999.90;;;26.50;91.40;;;;;;5050571;28;20041;-75
2022/07/12 07:42:21;;;;;;;1999.90;999.90;;;28.50;89.70;;;;;;5050267;28;20032;-73
2022/07/12 07:44:46;;;;;;;1999.90;999.90;;;30.80;83.70;;;;;;5050748;28;20491;-73
2022/07/12 07:47:12;;;;;;;1999.90;999.90;;;32.50;80.60;;;;;;5051428;28;20020;-74
2022/07/12 07:49:37;;;;;;;1999.90;999.90;;;33.70;77.60;;;;;;5050094;28;20025;-73
2022/07/12 07:52:03;;;;;;;1999.90;999.90;;;34.40;75.80;;;;;;5050103;28;20388;-74
2022/07/12 07:54:29;;;;;;;1999.90;999.90;;;35.00;75.30;;;;;;5048682;28;20125;-74
2022/07/12 07:56:54;;;;;;;1999.90;999.90;;;35.30;74.40;;;;;;5050411;28;20029;-73
2022/07/12 07:59:20;;;;;;;1999.90;999.90;;;35.70;73.20;;;;;;5048417;28;20480;-74
2022/07/12 08:01:46;;;;;;;1999.90;999.90;;;36.10;72.10;;;;;;5044158;28;20027;-73
2022/07/12 08:04:16;;;;;;;1999.90;999.90;;;36.30;72.90;;;;;;5051183;28;20037;-74
2022/07/12 08:06:42;;;;;;;1999.90;999.90;;;36.70;71.70;;;;;;5049961;28;20064;-74
2022/07/12 08:09:08;;;;;;;1999.90;999.90;;;37.00;71.30;;;;;;5050104;28;20024;-74
2022/07/12 08:11:35;;;;;;;1999.90;999.90;;;37.70;70.70;;;;;;5033074;28;20029;-74
2022/07/12 08:14:01;;;;;;;1999.90;999.90;;;38.00;68.90;;;;;;5050377;28;20508;-74
2022/07/12 08:16:27;;;;;;;1999.90;999.90;;;38.30;68.40;;;;;;5050319;28;20037;-74
2022/07/12 08:18:53;;;;;;;1999.90;999.90;;;38.50;68.20;;;;;;5050849;28;20464;-74
2022/07/12 08:21:19;;;;;;;1999.90;999.90;;;39.10;68.00;;;;;;5048436;28;20020;-74
2022/07/12 08:23:45;;;;;;;1999.90;999.90;;;39.20;67.50;;;;;;5040016;28;20544;-74
2022/07/12 08:26:10;;;;;;;1999.90;999.90;;;39.60;66.90;;;;;;5045722;28;20057;-74
2022/07/12 08:28:36;;;;;;;1999.90;999.90;;;40.00;66.50;;;;;;5040436;28;20029;-74
2022/07/12 08:31:01;;;;;;;1999.90;999.90;;;39.70;65.50;;;;;;5045497;28;20128;-74
2022/07/12 08:33:27;;;;;;;1999.90;999.90;;;40.30;66.00;;;;;;5048529;28;20387;-74
2022/07/12 08:35:53;;;;;;;1999.90;999.90;;;40.30;65.60;;;;;;5046442;28;20550;-74
2022/07/12 08:38:18;;;;;;;1999.90;999.90;;;40.90;65.60;;;;;;5046862;28;20100;-74
2022/07/12 08:40:44;;;;;;;1999.90;999.90;;;40.60;65.20;;;;;;5033074;28;20067;-74
2022/07/12 08:43:10;;;;;;;1999.90;999.90;;;40.90;65.20;;;;;;5048847;28;20025;-74
2022/07/12 08:45:35;;;;;;;1999.90;999.90;;;41.20;64.90;;;;;;5032869;28;20024;-74
2022/07/12 08:48:01;;;;;;;1999.90;999.90;;;41.70;64.50;;;;;;5048579;28;20021;-74
2022/07/12 08:50:27;;;;;;;1999.90;999.90;;;41.40;63.80;;;;;;5048667;28;20059;-74
2022/07/12 08:52:54;;;;;;;1999.90;999.90;;;41.60;63.90;;;;;;5049319;28;20519;-74
2022/07/12 08:55:25;;;;;;;1999.90;999.90;;;41.60;64.00;;;;;;5047293;28;20047;-74
2022/07/12 08:57:53;;;;;;;;;;;42.00;63.60;;;;;;5032219;28;20025;-74
2022/07/12 09:00:19;;;;;;;1999.90;999.90;;;42.20;63.60;;;;;;5052446;28;19927;-74
2022/07/12 09:02:45;;;;;;;1999.90;999.90;;;42.10;62.90;;;;;;5049550;28;20126;-75
2022/07/12 09:05:11;;;;;;;1999.90;999.90;;;42.00;63.50;;;;;;5050206;28;20029;-75
2022/07/12 09:07:38;;;;;;;1999.90;999.90;;;42.00;62.60;;;;;;5050262;28;20400;-74
2022/07/12 09:10:05;;;;;;;1999.90;999.90;;;42.10;63.10;;;;;;5045372;28;20504;-75
2022/07/12 09:12:31;;;;;;;1999.90;999.90;;;42.70;63.30;;;;;;5049419;28;20033;-75
2022/07/12 09:15:28;;;;;;;1999.90;999.90;;;42.70;63.00;;;;;;5049218;28;20110;-74
2022/07/12 09:18:12;;;;;;;1999.90;999.90;;;42.50;62.00;;;;;;5048364;28;20021;-75
2022/07/12 09:20:39;;;;;;;1999.90;999.90;;;42.30;62.40;;;;;;5048186;28;20121;-75
2022/07/12 09:23:07;;;;;;;1999.90;999.90;;;42.70;62.10;;;;;;5046422;28;20036;-74
2022/07/12 09:25:34;;;;;;;1999.90;999.90;;;42.70;62.00;;;;;;5045578;28;20376;-75
2022/07/12 09:28:04;;;;;;;1999.90;999.90;;;42.40;61.20;;;;;;5044327;28;20036;-74
2022/07/12 09:30:30;;;;;;;1999.90;999.90;;;42.70;61.40;;;;;;5048382;28;20045;-74
2022/07/12 09:36:07;;;;;;;1999.90;999.90;;;43.00;61.30;;;;;;5046132;28;20151;-74
2022/07/12 09:38:54;;;;;;;1999.90;999.90;;;43.10;61.80;;;;;;5050741;28;20272;-74
2022/07/12 09:41:21;;;;;;;1999.90;999.90;;;43.20;61.50;;;;;;5048787;28;20025;-74
2022/07/12 09:43:48;;;;;;;1999.90;999.90;;;43.00;60.90;;;;;;5044644;28;21730;-75
2022/07/12 09:46:14;;;;;;;1999.90;999.90;;;43.00;61.30;;;;;;5056878;28;20475;-75
2022/07/12 09:48:41;;;;;;;1999.90;999.90;;;42.90;61.80;;;;;;5050340;28;20060;-74
2022/07/12 09:51:09;;;;;;;1999.90;999.90;;;42.80;61.80;;;;;;5051535;28;20545;-75
2022/07/12 09:53:38;;;;;;;1999.90;999.90;;;42.60;61.70;;;;;;5048746;28;20443;-74
2022/07/12 09:56:05;;;;;;;1999.90;999.90;;;42.90;61.80;;;;;;5052108;28;20193;-74
2022/07/12 09:58:38;;;;;;;1999.90;999.90;;;42.80;61.30;;;;;;5052492;28;20025;-76
2022/07/12 10:01:06;;;;;;;1999.90;999.90;;;43.00;61.70;;;;;;5051510;28;20055;-75
2022/07/12 10:03:32;;;;;;;1999.90;999.90;;;43.30;61.70;;;;;;5054173;28;20423;-75
2022/07/12 10:06:02;;;;;;;1999.90;999.90;;;42.90;61.00;;;;;;5048593;28;20017;-75
2022/07/12 10:08:30;;;;;;;1999.90;999.90;;;42.90;60.60;;;;;;5052242;28;20033;-75
2022/07/12 10:10:56;;;;;;;1999.90;999.90;;;42.80;59.50;;;;;;5050975;28;20025;-75
2022/07/12 10:13:22;;;;;;;1999.90;999.90;;;43.00;58.90;;;;;;5051862;28;20468;-74
2022/07/12 10:15:49;;;;;;;1999.90;999.90;;;42.80;58.60;;;;;;5050262;28;20082;-75
2022/07/12 10:18:17;;;;;;;1999.90;999.90;;;42.50;58.20;;;;;;5052031;28;20036;-75
2022/07/12 10:20:44;;;;;;;1999.90;999.90;;;42.80;57.90;;;;;;5050391;28;20037;-75
2022/07/12 10:23:28;;;;;;;1999.90;999.90;;;43.00;57.50;;;;;;5045948;28;20017;-75
2022/07/12 10:25:53;;;;;;;1999.90;999.90;;;42.50;58.30;;;;;;5044114;28;20061;-75
2022/07/12 10:28:19;;;;;;;1999.90;999.90;;;42.80;58.00;;;;;;5042597;28;20551;-74
2022/07/12 10:30:47;;;;;;;1999.90;999.90;;;42.80;57.90;;;;;;5050312;28;20151;-75
2022/07/12 10:33:23;;;;;;;1999.90;999.90;;;42.90;56.80;;;;;;5043440;28;20486;-74
2022/07/12 10:35:59;;;;;;;1999.90;999.90;;;43.10;57.40;;;;;;5046265;28;20033;-75
2022/07/12 10:38:25;;;;;;;1999.90;999.90;;;43.00;56.90;;;;;;5047021;28;20431;-75
2022/07/12 10:40:51;;;;;;;1999.90;999.90;;;43.20;56.70;;;;;;5042914;28;20027;-75
2022/07/12 10:43:22;;;;;;;1999.90;999.90;;;43.00;57.50;;;;;;5045906;28;20029;-75
2022/07/12 10:46:15;;;;;;;1999.90;999.90;;;42.70;57.30;;;;;;5041248;28;20039;-75
2022/07/12 10:48:42;;;;;;;1999.90;999.90;;;43.00;57.30;;;;;;5042688;28;20026;-75
2022/07/12 10:51:16;;;;;;;1999.90;999.90;;;43.20;57.40;;;;;;5047431;28;20119;-75
2022/07/12 10:53:45;;;;;;;1999.90;999.90;;;43.10;58.20;;;;;;5044273;28;20120;-75
2022/07/12 10:56:18;;;;;;;1999.90;999.90;;;43.10;59.30;;;;;;5045627;28;20134;-75
2022/07/12 10:58:49;;;;;;;1999.90;999.90;;;43.10;57.00;;;;;;5047381;28;20032;-75
2022/07/12 11:01:16;;;;;;;1999.90;999.90;;;43.10;57.80;;;;;;5049023;28;20033;-75
2022/07/12 11:03:46;;;;;;;1999.90;999.90;;;43.00;57.10;;;;;;5049014;28;20507;-75
2022/07/12 11:06:14;;;;;;;1999.90;999.90;;;42.80;57.30;;;;;;5049122;28;20044;-75
2022/07/12 11:08:47;;;;;;;1999.90;999.90;;;42.80;56.60;;;;;;5046318;28;20112;-75
2022/07/12 11:11:12;;;;;;;1999.90;999.90;;;42.90;56.10;;;;;;5048238;28;20043;-75
2022/07/12 11:13:38;;;;;;;1999.90;999.90;;;42.70;57.30;;;;;;5051316;28;20029;-75
2022/07/12 11:16:04;;;;;;;1999.90;999.90;;;42.90;57.70;;;;;;5050791;28;20068;-75
2022/07/12 11:18:34;;;;;;;1999.90;999.90;;;42.50;57.20;;;;;;5046107;28;20020;-75
2022/07/12 11:21:01;;;;;;;1999.90;999.90;;;42.70;57.40;;;;;;5047511;28;20028;-75
2022/07/12 11:23:28;;;;;;;1999.90;999.90;;;43.00;56.80;;;;;;5039782;28;20028;-75
2022/07/12 11:25:59;;;;;;;1999.90;999.90;;;42.70;56.40;;;;;;5052283;28;20028;-74
2022/07/12 11:28:27;;;;;;;1999.90;999.90;;;43.10;57.00;;;;;;5042894;28;20033;-75
2022/07/12 11:31:01;;;;;;;1999.90;999.90;;;43.00;56.90;;;;;;5051813;28;20456;-75
2022/07/12 11:33:32;;;;;;;1999.90;999.90;;;42.90;55.80;;;;;;5055023;28;20028;-75
2022/07/12 11:35:59;;;;;;;1999.90;999.90;;;42.80;55.90;;;;;;5047943;28;20107;-75
2022/07/12 11:38:25;;;;;;;1999.90;999.90;;;42.80;57.40;;;;;;5047771;28;20436;-74
2022/07/12 11:40:59;;;;;;;1999.90;999.90;;;42.40;57.00;;;;;;5061960;28;20028;-75
2022/07/12 11:43:26;;;;;;;1999.90;999.90;;;42.50;56.10;;;;;;5049445;28;20028;-75
2022/07/12 11:45:53;;;;;;;1999.90;999.90;;;42.70;55.70;;;;;;5049313;28;20067;-75
2022/07/12 11:48:20;;;;;;;1999.90;999.90;;;42.80;55.40;;;;;;5029576;28;20032;-75
2022/07/12 11:50:46;;;;;;;1999.90;999.90;;;42.50;57.10;;;;;;5048824;28;20033;-74
2022/07/12 11:53:26;;;;;;;1999.90;999.90;;;42.20;55.70;;;;;;5044033;28;20043;-75
2022/07/12 11:55:55;;;;;;;1999.90;999.90;;;41.30;55.10;;;;;;5058189;28;20037;-75
2022/07/12 11:58:22;;;;;;;1999.90;999.90;;;40.60;57.50;;;;;;5048658;28;20132;-75
2022/07/12 12:00:49;;;;;;;1999.90;999.90;;;40.50;58.40;;;;;;5048813;28;20029;-75
2022/07/12 12:03:16;;;;;;;1999.90;999.90;;;40.70;57.80;;;;;;5049355;28;20035;-75
2022/07/12 12:05:43;;;;;;;1999.90;999.90;;;40.30;56.50;;;;;;5050091;28;20052;-75